sensor_id;sensor_type;location;lat;lon;timestamp;P1;durP1;ratioP1;P2;durP2;ratioP2
23362;SDS011;11853;48.080;11.960;2023-11-21T00:01:01;7.20;;;2.08;;
23362;SDS011;11853;48.080;11.960;2023-11-21T00:03:29;5.20;;;2.22;;
23362;SDS011;11853;48.080;11.960;2023-11-21T00:05:55;6.55;;;1.75;;
23362;SDS011;11853;48.080;11.960;2023-11-21T00:08:21;4.38;;;2.00;;
23362;SDS011;11853;48.080;11.960;2023-11-21T00:10:49;3.78;;;1.52;;
23362;SDS011;11853;48.080;11.960;2023-11-21T00:13:16;7.70;;;2.05;;
23362;SDS011;11853;48.080;11.960;2023-11-21T00:15:43;5.68;;;1.98;;
23362;SDS011;11853;48.080;11.960;2023-11-21T00:18:08;4.97;;;1.77;;
23362;SDS011;11853;48.080;11.960;2023-11-21T00:20:35;5.40;;;2.28;;
23362;SDS011;11853;48.080;11.960;2023-11-21T00:23:00;8.68;;;2.33;;
23362;SDS011;11853;48.080;11.960;2023-11-21T00:25:27;5.03;;;2.10;;
23362;SDS011;11853;48.080;11.960;2023-11-21T00:27:53;4.88;;;1.85;;
23362;SDS011;11853;48.080;11.960;2023-11-21T00:30:19;5.25;;;1.65;;
23362;SDS011;11853;48.080;11.960;2023-11-21T00:32:46;5.72;;;1.90;;
23362;SDS011;11853;48.080;11.960;2023-11-21T00:35:11;6.45;;;2.00;;
23362;SDS011;11853;48.080;11.960;2023-11-21T00:37:37;5.05;;;1.90;;
23362;SDS011;11853;48.080;11.960;2023-11-21T00:40:04;7.82;;;1.67;;
23362;SDS011;11853;48.080;11.960;2023-11-21T00:42:31;6.20;;;1.77;;
23362;SDS011;11853;48.080;11.960;2023-11-21T00:44:59;5.47;;;1.75;;
23362;SDS011;11853;48.080;11.960;2023-11-21T00:47:25;7.35;;;2.42;;
23362;SDS011;11853;48.080;11.960;2023-11-21T00:49:51;5.88;;;2.20;;
23362;SDS011;11853;48.080;11.960;2023-11-21T00:52:19;7.18;;;1.92;;
23362;SDS011;11853;48.080;11.960;2023-11-21T00:54:45;5.45;;;1.92;;
23362;SDS011;11853;48.080;11.960;2023-11-21T00:57:13;4.70;;;1.80;;
23362;SDS011;11853;48.080;11.960;2023-11-21T00:59:39;3.97;;;1.30;;
23362;SDS011;11853;48.080;11.960;2023-11-21T01:02:04;4.05;;;1.30;;
23362;SDS011;11853;48.080;11.960;2023-11-21T01:04:30;5.00;;;1.92;;
23362;SDS011;11853;48.080;11.960;2023-11-21T01:06:57;3.85;;;2.00;;
23362;SDS011;11853;48.080;11.960;2023-11-21T01:09:23;4.35;;;1.65;;
23362;SDS011;11853;48.080;11.960;2023-11-21T01:11:49;16.50;;;10.75;;
23362;SDS011;11853;48.080;11.960;2023-11-21T01:14:14;5.03;;;2.35;;
23362;SDS011;11853;48.080;11.960;2023-11-21T01:16:40;6.13;;;2.00;;
23362;SDS011;11853;48.080;11.960;2023-11-21T01:19:06;5.20;;;2.08;;
23362;SDS011;11853;48.080;11.960;2023-11-21T01:21:31;4.82;;;1.77;;
23362;SDS011;11853;48.080;11.960;2023-11-21T01:23:57;3.97;;;1.90;;
23362;SDS011;11853;48.080;11.960;2023-11-21T01:26:23;6.28;;;2.20;;
23362;SDS011;11853;48.080;11.960;2023-11-21T01:28:48;8.80;;;2.33;;
23362;SDS011;11853;48.080;11.960;2023-11-21T01:31:17;4.10;;;1.80;;
23362;SDS011;11853;48.080;11.960;2023-11-21T01:33:43;6.32;;;2.13;;
23362;SDS011;11853;48.080;11.960;2023-11-21T01:36:09;6.38;;;2.67;;
23362;SDS011;11853;48.080;11.960;2023-11-21T01:38:35;3.35;;;2.05;;
23362;SDS011;11853;48.080;11.960;2023-11-21T01:41:01;6.88;;;2.45;;
23362;SDS011;11853;48.080;11.960;2023-11-21T01:43:26;7.88;;;2.40;;
23362;SDS011;11853;48.080;11.960;2023-11-21T01:45:55;7.60;;;2.28;;
23362;SDS011;11853;48.080;11.960;2023-11-21T01:48:24;7.13;;;2.10;;
23362;SDS011;11853;48.080;11.960;2023-11-21T01:50:50;3.80;;;1.83;;
23362;SDS011;11853;48.080;11.960;2023-11-21T01:53:16;5.55;;;1.80;;
23362;SDS011;11853;48.080;11.960;2023-11-21T01:55:43;6.28;;;2.05;;
23362;SDS011;11853;48.080;11.960;2023-11-21T01:58:10;6.10;;;1.92;;
23362;SDS011;11853;48.080;11.960;2023-11-21T02:00:38;4.78;;;1.83;;
23362;SDS011;11853;48.080;11.960;2023-11-21T02:03:03;3.10;;;2.05;;
23362;SDS011;11853;48.080;11.960;2023-11-21T02:05:29;5.00;;;2.08;;
23362;SDS011;11853;48.080;11.960;2023-11-21T02:07:55;5.40;;;1.77;;
23362;SDS011;11853;48.080;11.960;2023-11-21T02:10:21;5.50;;;2.20;;
23362;SDS011;11853;48.080;11.960;2023-11-21T02:12:50;6.07;;;2.10;;
23362;SDS011;11853;48.080;11.960;2023-11-21T02:15:15;5.25;;;2.42;;
23362;SDS011;11853;48.080;11.960;2023-11-21T02:17:45;7.07;;;2.22;;
23362;SDS011;11853;48.080;11.960;2023-11-21T02:20:19;6.75;;;2.45;;
23362;SDS011;11853;48.080;11.960;2023-11-21T02:22:55;4.68;;;1.70;;
23362;SDS011;11853;48.080;11.960;2023-11-21T02:25:28;4.65;;;2.05;;
23362;SDS011;11853;48.080;11.960;2023-11-21T02:27:56;5.20;;;2.38;;
23362;SDS011;11853;48.080;11.960;2023-11-21T02:30:22;5.57;;;1.63;;
23362;SDS011;11853;48.080;11.960;2023-11-21T02:32:50;3.92;;;1.67;;
23362;SDS011;11853;48.080;11.960;2023-11-21T02:35:18;5.80;;;2.03;;
23362;SDS011;11853;48.080;11.960;2023-11-21T02:37:46;3.42;;;1.33;;
23362;SDS011;11853;48.080;11.960;2023-11-21T02:40:12;6.05;;;1.80;;
23362;SDS011;11853;48.080;11.960;2023-11-21T02:42:38;3.13;;;1.17;;
23362;SDS011;11853;48.080;11.960;2023-11-21T02:45:05;5.50;;;1.88;;
23362;SDS011;11853;48.080;11.960;2023-11-21T02:47:32;5.88;;;1.60;;
23362;SDS011;11853;48.080;11.960;2023-11-21T02:49:58;4.07;;;1.60;;
23362;SDS011;11853;48.080;11.960;2023-11-21T02:52:24;6.28;;;2.05;;
23362;SDS011;11853;48.080;11.960;2023-11-21T02:54:50;4.43;;;1.88;;
23362;SDS011;11853;48.080;11.960;2023-11-21T02:57:16;5.22;;;1.58;;
23362;SDS011;11853;48.080;11.960;2023-11-21T02:59:42;3.38;;;1.70;;
23362;SDS011;11853;48.080;11.960;2023-11-21T03:02:07;7.80;;;1.92;;
23362;SDS011;11853;48.080;11.960;2023-11-21T03:04:33;4.18;;;1.80;;
23362;SDS011;11853;48.080;11.960;2023-11-21T03:07:00;4.85;;;1.77;;
23362;SDS011;11853;48.080;11.960;2023-11-21T03:09:26;5.00;;;1.30;;
23362;SDS011;11853;48.080;11.960;2023-11-21T03:11:52;4.38;;;1.58;;
23362;SDS011;11853;48.080;11.960;2023-11-21T03:14:18;3.63;;;1.83;;
23362;SDS011;11853;48.080;11.960;2023-11-21T03:16:44;5.25;;;1.52;;
23362;SDS011;11853;48.080;11.960;2023-11-21T03:19:10;5.80;;;1.75;;
23362;SDS011;11853;48.080;11.960;2023-11-21T03:21:36;3.15;;;1.38;;
23362;SDS011;11853;48.080;11.960;2023-11-21T03:24:02;8.05;;;1.92;;
23362;SDS011;11853;48.080;11.960;2023-11-21T03:26:28;3.67;;;1.10;;
23362;SDS011;11853;48.080;11.960;2023-11-21T03:28:54;5.28;;;1.48;;
23362;SDS011;11853;48.080;11.960;2023-11-21T03:31:20;5.00;;;1.48;;
23362;SDS011;11853;48.080;11.960;2023-11-21T03:33:46;4.13;;;1.45;;
23362;SDS011;11853;48.080;11.960;2023-11-21T03:36:12;3.13;;;1.25;;
23362;SDS011;11853;48.080;11.960;2023-11-21T03:38:40;5.53;;;1.38;;
23362;SDS011;11853;48.080;11.960;2023-11-21T03:41:06;3.38;;;1.35;;
23362;SDS011;11853;48.080;11.960;2023-11-21T03:43:32;1.88;;;1.40;;
23362;SDS011;11853;48.080;11.960;2023-11-21T03:45:57;7.47;;;1.50;;
23362;SDS011;11853;48.080;11.960;2023-11-21T03:48:23;4.13;;;1.73;;
23362;SDS011;11853;48.080;11.960;2023-11-21T03:50:48;4.07;;;1.30;;
23362;SDS011;11853;48.080;11.960;2023-11-21T03:53:14;4.10;;;1.45;;
23362;SDS011;11853;48.080;11.960;2023-11-21T03:55:39;3.75;;;1.38;;
23362;SDS011;11853;48.080;11.960;2023-11-21T03:58:05;1.20;;;0.95;;
23362;SDS011;11853;48.080;11.960;2023-11-21T04:00:30;5.47;;;1.52;;
23362;SDS011;11853;48.080;11.960;2023-11-21T04:02:56;5.97;;;1.80;;
23362;SDS011;11853;48.080;11.960;2023-11-21T04:05:22;2.92;;;1.20;;
23362;SDS011;11853;48.080;11.960;2023-11-21T04:07:51;3.25;;;1.60;;
23362;SDS011;11853;48.080;11.960;2023-11-21T04:10:17;3.50;;;1.10;;
23362;SDS011;11853;48.080;11.960;2023-11-21T04:12:43;2.47;;;1.08;;
23362;SDS011;11853;48.080;11.960;2023-11-21T04:15:10;1.98;;;1.10;;
23362;SDS011;11853;48.080;11.960;2023-11-21T04:17:37;4.05;;;1.33;;
23362;SDS011;11853;48.080;11.960;2023-11-21T04:20:06;4.78;;;1.33;;
23362;SDS011;11853;48.080;11.960;2023-11-21T04:22:41;3.13;;;1.20;;
23362;SDS011;11853;48.080;11.960;2023-11-21T04:25:12;4.07;;;1.20;;
23362;SDS011;11853;48.080;11.960;2023-11-21T04:27:40;4.40;;;1.52;;
23362;SDS011;11853;48.080;11.960;2023-11-21T04:30:09;5.38;;;1.95;;
23362;SDS011;11853;48.080;11.960;2023-11-21T04:32:35;6.75;;;1.45;;
23362;SDS011;11853;48.080;11.960;2023-11-21T04:35:01;3.33;;;0.98;;
23362;SDS011;11853;48.080;11.960;2023-11-21T04:37:27;2.55;;;1.15;;
23362;SDS011;11853;48.080;11.960;2023-11-21T04:39:52;4.00;;;1.30;;
23362;SDS011;11853;48.080;11.960;2023-11-21T04:42:18;4.97;;;1.58;;
23362;SDS011;11853;48.080;11.960;2023-11-21T04:44:44;3.63;;;1.25;;
23362;SDS011;11853;48.080;11.960;2023-11-21T04:47:09;1.75;;;1.10;;
23362;SDS011;11853;48.080;11.960;2023-11-21T04:49:35;2.20;;;1.13;;
23362;SDS011;11853;48.080;11.960;2023-11-21T04:52:01;2.38;;;1.02;;
23362;SDS011;11853;48.080;11.960;2023-11-21T04:54:28;2.13;;;1.00;;
23362;SDS011;11853;48.080;11.960;2023-11-21T04:56:55;2.60;;;1.05;;
23362;SDS011;11853;48.080;11.960;2023-11-21T04:59:21;5.20;;;1.40;;
23362;SDS011;11853;48.080;11.960;2023-11-21T05:01:50;2.40;;;1.23;;
23362;SDS011;11853;48.080;11.960;2023-11-21T05:04:16;4.93;;;1.13;;
23362;SDS011;11853;48.080;11.960;2023-11-21T05:06:41;5.53;;;1.20;;
23362;SDS011;11853;48.080;11.960;2023-11-21T05:09:07;4.90;;;1.35;;
23362;SDS011;11853;48.080;11.960;2023-11-21T05:11:37;2.67;;;0.88;;
23362;SDS011;11853;48.080;11.960;2023-11-21T05:14:03;3.03;;;1.00;;
23362;SDS011;11853;48.080;11.960;2023-11-21T05:16:30;2.17;;;0.80;;
23362;SDS011;11853;48.080;11.960;2023-11-21T05:18:56;2.97;;;1.30;;
23362;SDS011;11853;48.080;11.960;2023-11-21T05:21:26;1.75;;;0.73;;
23362;SDS011;11853;48.080;11.960;2023-11-21T05:23:57;2.95;;;0.82;;
23362;SDS011;11853;48.080;11.960;2023-11-21T05:26:22;2.63;;;0.93;;
23362;SDS011;11853;48.080;11.960;2023-11-21T05:28:48;2.95;;;0.98;;
23362;SDS011;11853;48.080;11.960;2023-11-21T05:31:14;2.78;;;1.17;;
23362;SDS011;11853;48.080;11.960;2023-11-21T05:33:40;1.98;;;0.90;;
23362;SDS011;11853;48.080;11.960;2023-11-21T05:36:06;3.05;;;1.23;;
23362;SDS011;11853;48.080;11.960;2023-11-21T05:38:33;2.83;;;1.13;;
23362;SDS011;11853;48.080;11.960;2023-11-21T05:41:01;4.05;;;1.05;;
23362;SDS011;11853;48.080;11.960;2023-11-21T05:43:27;4.05;;;1.10;;
23362;SDS011;11853;48.080;11.960;2023-11-21T05:45:54;2.40;;;1.42;;
23362;SDS011;11853;48.080;11.960;2023-11-21T05:48:20;2.80;;;1.00;;
23362;SDS011;11853;48.080;11.960;2023-11-21T05:50:46;2.47;;;1.10;;
23362;SDS011;11853;48.080;11.960;2023-11-21T05:53:12;3.13;;;1.05;;
23362;SDS011;11853;48.080;11.960;2023-11-21T05:55:41;2.05;;;0.90;;
23362;SDS011;11853;48.080;11.960;2023-11-21T05:58:07;2.75;;;1.17;;
23362;SDS011;11853;48.080;11.960;2023-11-21T06:00:33;2.67;;;1.10;;
23362;SDS011;11853;48.080;11.960;2023-11-21T06:02:58;3.33;;;0.90;;
23362;SDS011;11853;48.080;11.960;2023-11-21T06:05:25;3.17;;;0.80;;
23362;SDS011;11853;48.080;11.960;2023-11-21T06:07:54;2.78;;;0.85;;
23362;SDS011;11853;48.080;11.960;2023-11-21T06:10:24;2.15;;;0.90;;
23362;SDS011;11853;48.080;11.960;2023-11-21T06:12:50;3.85;;;1.00;;
23362;SDS011;11853;48.080;11.960;2023-11-21T06:15:16;2.72;;;1.05;;
23362;SDS011;11853;48.080;11.960;2023-11-21T06:17:44;2.15;;;0.90;;
23362;SDS011;11853;48.080;11.960;2023-11-21T06:20:14;2.47;;;0.77;;
23362;SDS011;11853;48.080;11.960;2023-11-21T06:22:43;2.55;;;1.00;;
23362;SDS011;11853;48.080;11.960;2023-11-21T06:25:10;1.95;;;0.85;;
23362;SDS011;11853;48.080;11.960;2023-11-21T06:27:39;1.40;;;0.70;;
23362;SDS011;11853;48.080;11.960;2023-11-21T06:30:07;1.45;;;0.77;;
23362;SDS011;11853;48.080;11.960;2023-11-21T06:32:37;4.97;;;1.30;;
23362;SDS011;11853;48.080;11.960;2023-11-21T06:35:04;1.77;;;0.80;;
23362;SDS011;11853;48.080;11.960;2023-11-21T06:37:31;2.05;;;1.10;;
23362;SDS011;11853;48.080;11.960;2023-11-21T06:39:57;1.40;;;0.88;;
23362;SDS011;11853;48.080;11.960;2023-11-21T06:42:23;2.42;;;1.30;;
23362;SDS011;11853;48.080;11.960;2023-11-21T06:44:50;3.92;;;1.00;;
23362;SDS011;11853;48.080;11.960;2023-11-21T06:47:22;1.65;;;0.60;;
23362;SDS011;11853;48.080;11.960;2023-11-21T06:49:52;1.38;;;1.08;;
23362;SDS011;11853;48.080;11.960;2023-11-21T06:52:21;2.70;;;1.05;;
23362;SDS011;11853;48.080;11.960;2023-11-21T06:54:47;2.53;;;1.00;;
23362;SDS011;11853;48.080;11.960;2023-11-21T06:57:16;2.80;;;1.02;;
23362;SDS011;11853;48.080;11.960;2023-11-21T06:59:43;3.17;;;0.75;;
23362;SDS011;11853;48.080;11.960;2023-11-21T07:02:08;3.17;;;0.77;;
23362;SDS011;11853;48.080;11.960;2023-11-21T07:04:35;1.70;;;0.80;;
23362;SDS011;11853;48.080;11.960;2023-11-21T07:07:01;1.20;;;0.85;;
23362;SDS011;11853;48.080;11.960;2023-11-21T07:09:28;2.45;;;0.85;;
23362;SDS011;11853;48.080;11.960;2023-11-21T07:11:55;1.45;;;0.80;;
23362;SDS011;11853;48.080;11.960;2023-11-21T07:14:20;1.15;;;0.80;;
23362;SDS011;11853;48.080;11.960;2023-11-21T07:16:47;2.20;;;0.93;;
23362;SDS011;11853;48.080;11.960;2023-11-21T07:19:12;2.00;;;0.88;;
23362;SDS011;11853;48.080;11.960;2023-11-21T07:21:39;2.30;;;0.70;;
23362;SDS011;11853;48.080;11.960;2023-11-21T07:24:06;5.88;;;1.23;;
23362;SDS011;11853;48.080;11.960;2023-11-21T07:26:33;3.13;;;1.25;;
23362;SDS011;11853;48.080;11.960;2023-11-21T07:28:59;4.30;;;1.23;;
23362;SDS011;11853;48.080;11.960;2023-11-21T07:31:26;1.48;;;0.88;;
23362;SDS011;11853;48.080;11.960;2023-11-21T07:33:52;1.33;;;1.23;;
23362;SDS011;11853;48.080;11.960;2023-11-21T07:36:19;2.45;;;1.10;;
23362;SDS011;11853;48.080;11.960;2023-11-21T07:38:46;1.65;;;1.00;;
23362;SDS011;11853;48.080;11.960;2023-11-21T07:41:12;2.17;;;1.13;;
23362;SDS011;11853;48.080;11.960;2023-11-21T07:43:41;3.25;;;1.30;;
23362;SDS011;11853;48.080;11.960;2023-11-21T07:46:07;2.40;;;1.02;;
23362;SDS011;11853;48.080;11.960;2023-11-21T07:48:33;3.47;;;1.25;;
23362;SDS011;11853;48.080;11.960;2023-11-21T07:51:00;2.25;;;1.00;;
23362;SDS011;11853;48.080;11.960;2023-11-21T07:53:28;2.42;;;0.80;;
23362;SDS011;11853;48.080;11.960;2023-11-21T07:55:58;2.00;;;1.05;;
23362;SDS011;11853;48.080;11.960;2023-11-21T07:58:24;2.00;;;1.00;;
23362;SDS011;11853;48.080;11.960;2023-11-21T08:00:50;2.67;;;1.13;;
23362;SDS011;11853;48.080;11.960;2023-11-21T08:03:16;2.72;;;1.23;;
23362;SDS011;11853;48.080;11.960;2023-11-21T08:05:42;1.25;;;0.90;;
23362;SDS011;11853;48.080;11.960;2023-11-21T08:08:08;1.15;;;0.90;;
23362;SDS011;11853;48.080;11.960;2023-11-21T08:10:34;2.47;;;0.80;;
23362;SDS011;11853;48.080;11.960;2023-11-21T08:13:01;2.85;;;1.00;;
23362;SDS011;11853;48.080;11.960;2023-11-21T08:15:27;2.85;;;1.13;;
23362;SDS011;11853;48.080;11.960;2023-11-21T08:17:53;3.08;;;1.30;;
23362;SDS011;11853;48.080;11.960;2023-11-21T08:20:18;1.92;;;1.00;;
23362;SDS011;11853;48.080;11.960;2023-11-21T08:22:44;1.30;;;1.00;;
23362;SDS011;11853;48.080;11.960;2023-11-21T08:25:10;3.30;;;0.82;;
23362;SDS011;11853;48.080;11.960;2023-11-21T08:27:36;2.17;;;1.25;;
23362;SDS011;11853;48.080;11.960;2023-11-21T08:30:02;2.35;;;1.00;;
23362;SDS011;11853;48.080;11.960;2023-11-21T08:32:28;1.70;;;0.98;;
23362;SDS011;11853;48.080;11.960;2023-11-21T08:34:57;2.35;;;0.65;;
23362;SDS011;11853;48.080;11.960;2023-11-21T08:37:23;3.70;;;1.13;;
23362;SDS011;11853;48.080;11.960;2023-11-21T08:39:49;1.85;;;1.00;;
23362;SDS011;11853;48.080;11.960;2023-11-21T08:42:15;1.98;;;0.85;;
23362;SDS011;11853;48.080;11.960;2023-11-21T08:44:40;1.73;;;1.15;;
23362;SDS011;11853;48.080;11.960;2023-11-21T08:47:06;2.15;;;0.88;;
23362;SDS011;11853;48.080;11.960;2023-11-21T08:49:32;1.77;;;1.10;;
23362;SDS011;11853;48.080;11.960;2023-11-21T08:51:58;3.00;;;1.10;;
23362;SDS011;11853;48.080;11.960;2023-11-21T08:54:25;1.27;;;0.93;;
23362;SDS011;11853;48.080;11.960;2023-11-21T08:56:54;2.33;;;0.95;;
23362;SDS011;11853;48.080;11.960;2023-11-21T08:59:20;2.65;;;0.90;;
23362;SDS011;11853;48.080;11.960;2023-11-21T09:01:46;1.55;;;0.88;;
23362;SDS011;11853;48.080;11.960;2023-11-21T09:04:12;1.92;;;0.80;;
23362;SDS011;11853;48.080;11.960;2023-11-21T09:06:39;1.75;;;0.98;;
23362;SDS011;11853;48.080;11.960;2023-11-21T09:09:05;1.17;;;0.80;;
23362;SDS011;11853;48.080;11.960;2023-11-21T09:11:31;1.50;;;0.95;;
23362;SDS011;11853;48.080;11.960;2023-11-21T09:13:59;1.33;;;1.00;;
23362;SDS011;11853;48.080;11.960;2023-11-21T09:16:25;3.88;;;1.27;;
23362;SDS011;11853;48.080;11.960;2023-11-21T09:18:51;2.22;;;0.93;;
23362;SDS011;11853;48.080;11.960;2023-11-21T09:21:17;1.85;;;0.82;;
23362;SDS011;11853;48.080;11.960;2023-11-21T09:23:46;1.48;;;1.13;;
23362;SDS011;11853;48.080;11.960;2023-11-21T09:26:13;1.63;;;0.73;;
23362;SDS011;11853;48.080;11.960;2023-11-21T09:28:41;2.25;;;0.98;;
23362;SDS011;11853;48.080;11.960;2023-11-21T09:31:11;1.15;;;0.80;;
23362;SDS011;11853;48.080;11.960;2023-11-21T09:33:37;2.00;;;1.00;;
23362;SDS011;11853;48.080;11.960;2023-11-21T09:36:03;1.92;;;0.95;;
23362;SDS011;11853;48.080;11.960;2023-11-21T09:38:30;0.80;;;0.77;;
23362;SDS011;11853;48.080;11.960;2023-11-21T09:40:56;2.55;;;0.80;;
23362;SDS011;11853;48.080;11.960;2023-11-21T09:43:23;2.15;;;1.20;;
23362;SDS011;11853;48.080;11.960;2023-11-21T09:45:59;1.45;;;0.95;;
23362;SDS011;11853;48.080;11.960;2023-11-21T09:48:27;1.60;;;1.02;;
23362;SDS011;11853;48.080;11.960;2023-11-21T09:50:55;2.17;;;1.05;;
23362;SDS011;11853;48.080;11.960;2023-11-21T09:53:22;2.78;;;1.00;;
23362;SDS011;11853;48.080;11.960;2023-11-21T09:55:51;2.65;;;1.10;;
23362;SDS011;11853;48.080;11.960;2023-11-21T09:58:17;1.15;;;0.88;;
23362;SDS011;11853;48.080;11.960;2023-11-21T10:00:45;2.22;;;1.35;;
23362;SDS011;11853;48.080;11.960;2023-11-21T10:03:13;0.98;;;0.80;;
23362;SDS011;11853;48.080;11.960;2023-11-21T10:05:39;1.17;;;0.85;;
23362;SDS011;11853;48.080;11.960;2023-11-21T10:08:08;1.92;;;1.08;;
23362;SDS011;11853;48.080;11.960;2023-11-21T10:10:36;2.38;;;1.30;;
23362;SDS011;11853;48.080;11.960;2023-11-21T10:13:04;1.48;;;0.90;;
23362;SDS011;11853;48.080;11.960;2023-11-21T10:15:35;1.38;;;1.02;;
23362;SDS011;11853;48.080;11.960;2023-11-21T10:18:04;1.05;;;0.90;;
23362;SDS011;11853;48.080;11.960;2023-11-21T10:20:32;2.50;;;0.95;;
23362;SDS011;11853;48.080;11.960;2023-11-21T10:22:59;1.50;;;1.05;;
23362;SDS011;11853;48.080;11.960;2023-11-21T10:25:28;1.90;;;0.88;;
23362;SDS011;11853;48.080;11.960;2023-11-21T10:27:57;1.23;;;0.98;;
23362;SDS011;11853;48.080;11.960;2023-11-21T10:30:35;2.03;;;1.10;;
23362;SDS011;11853;48.080;11.960;2023-11-21T10:33:02;1.20;;;0.93;;
23362;SDS011;11853;48.080;11.960;2023-11-21T10:35:41;2.88;;;1.17;;
23362;SDS011;11853;48.080;11.960;2023-11-21T10:38:18;1.58;;;1.30;;
23362;SDS011;11853;48.080;11.960;2023-11-21T10:40:47;3.05;;;1.50;;
23362;SDS011;11853;48.080;11.960;2023-11-21T10:43:14;1.83;;;1.38;;
23362;SDS011;11853;48.080;11.960;2023-11-21T10:45:40;2.15;;;1.40;;
23362;SDS011;11853;48.080;11.960;2023-11-21T10:48:08;3.63;;;1.00;;
23362;SDS011;11853;48.080;11.960;2023-11-21T10:50:41;2.28;;;1.00;;
23362;SDS011;11853;48.080;11.960;2023-11-21T10:53:08;2.10;;;1.23;;
23362;SDS011;11853;48.080;11.960;2023-11-21T10:55:36;1.25;;;1.05;;
23362;SDS011;11853;48.080;11.960;2023-11-21T10:58:03;2.33;;;1.17;;
23362;SDS011;11853;48.080;11.960;2023-11-21T11:00:30;1.80;;;0.93;;
23362;SDS011;11853;48.080;11.960;2023-11-21T11:02:57;1.58;;;1.02;;
23362;SDS011;11853;48.080;11.960;2023-11-21T11:05:24;2.78;;;1.15;;
23362;SDS011;11853;48.080;11.960;2023-11-21T11:08:02;2.05;;;0.70;;
23362;SDS011;11853;48.080;11.960;2023-11-21T11:10:30;2.58;;;1.00;;
23362;SDS011;11853;48.080;11.960;2023-11-21T11:12:57;1.25;;;0.82;;
23362;SDS011;11853;48.080;11.960;2023-11-21T11:15:26;2.70;;;1.30;;
23362;SDS011;11853;48.080;11.960;2023-11-21T11:17:53;3.50;;;1.55;;
23362;SDS011;11853;48.080;11.960;2023-11-21T11:20:23;2.38;;;0.95;;
23362;SDS011;11853;48.080;11.960;2023-11-21T11:25:40;2.13;;;0.85;;
23362;SDS011;11853;48.080;11.960;2023-11-21T11:28:35;1.35;;;1.02;;
23362;SDS011;11853;48.080;11.960;2023-11-21T11:34:23;1.73;;;1.13;;
23362;SDS011;11853;48.080;11.960;2023-11-21T11:37:02;1.40;;;1.02;;
23362;SDS011;11853;48.080;11.960;2023-11-21T11:39:30;1.88;;;1.40;;
23362;SDS011;11853;48.080;11.960;2023-11-21T11:42:01;1.17;;;0.82;;
23362;SDS011;11853;48.080;11.960;2023-11-21T11:50:01;2.17;;;1.50;;
23362;SDS011;11853;48.080;11.960;2023-11-21T11:52:36;1.35;;;1.02;;
23362;SDS011;11853;48.080;11.960;2023-11-21T11:55:05;2.75;;;1.17;;
23362;SDS011;11853;48.080;11.960;2023-11-21T11:57:35;1.73;;;1.35;;
23362;SDS011;11853;48.080;11.960;2023-11-21T12:00:10;2.92;;;1.30;;
23362;SDS011;11853;48.080;11.960;2023-11-21T12:02:53;2.72;;;1.15;;
23362;SDS011;11853;48.080;11.960;2023-11-21T12:05:23;1.85;;;0.75;;
23362;SDS011;11853;48.080;11.960;2023-11-21T12:07:49;2.15;;;0.90;;
23362;SDS011;11853;48.080;11.960;2023-11-21T12:10:19;1.35;;;0.85;;
23362;SDS011;11853;48.080;11.960;2023-11-21T12:12:49;1.98;;;0.95;;
23362;SDS011;11853;48.080;11.960;2023-11-21T12:15:26;1.35;;;0.77;;
23362;SDS011;11853;48.080;11.960;2023-11-21T12:17:56;1.38;;;0.88;;
23362;SDS011;11853;48.080;11.960;2023-11-21T12:20:24;1.08;;;0.80;;
23362;SDS011;11853;48.080;11.960;2023-11-21T12:22:54;1.80;;;0.95;;
23362;SDS011;11853;48.080;11.960;2023-11-21T12:25:25;1.00;;;0.80;;
23362;SDS011;11853;48.080;11.960;2023-11-21T12:27:54;1.92;;;1.00;;
23362;SDS011;11853;48.080;11.960;2023-11-21T12:30:25;1.73;;;0.75;;
23362;SDS011;11853;48.080;11.960;2023-11-21T12:33:00;1.63;;;1.20;;
23362;SDS011;11853;48.080;11.960;2023-11-21T12:35:28;1.38;;;1.13;;
23362;SDS011;11853;48.080;11.960;2023-11-21T12:37:55;1.73;;;1.23;;
23362;SDS011;11853;48.080;11.960;2023-11-21T12:40:25;2.00;;;1.30;;
23362;SDS011;11853;48.080;11.960;2023-11-21T12:42:56;1.60;;;1.50;;
23362;SDS011;11853;48.080;11.960;2023-11-21T12:50:28;2.15;;;1.27;;
23362;SDS011;11853;48.080;11.960;2023-11-21T12:53:02;1.33;;;0.80;;
23362;SDS011;11853;48.080;11.960;2023-11-21T12:55:33;2.15;;;0.90;;
23362;SDS011;11853;48.080;11.960;2023-11-21T12:58:03;1.05;;;0.68;;
23362;SDS011;11853;48.080;11.960;2023-11-21T13:00:37;2.85;;;1.60;;
23362;SDS011;11853;48.080;11.960;2023-11-21T13:03:08;6.45;;;1.33;;
23362;SDS011;11853;48.080;11.960;2023-11-21T13:05:37;2.40;;;1.65;;
23362;SDS011;11853;48.080;11.960;2023-11-21T13:08:05;3.67;;;1.55;;
23362;SDS011;11853;48.080;11.960;2023-11-21T13:10:37;1.83;;;1.50;;
23362;SDS011;11853;48.080;11.960;2023-11-21T13:13:09;0.85;;;0.60;;
23362;SDS011;11853;48.080;11.960;2023-11-21T13:15:46;1.40;;;1.08;;
23362;SDS011;11853;48.080;11.960;2023-11-21T13:18:16;1.00;;;0.90;;
23362;SDS011;11853;48.080;11.960;2023-11-21T13:20:42;0.77;;;0.60;;
23362;SDS011;11853;48.080;11.960;2023-11-21T13:23:09;0.50;;;0.50;;
23362;SDS011;11853;48.080;11.960;2023-11-21T13:25:37;0.50;;;0.50;;
23362;SDS011;11853;48.080;11.960;2023-11-21T13:28:04;0.65;;;0.60;;
23362;SDS011;11853;48.080;11.960;2023-11-21T13:30:30;0.95;;;0.50;;
23362;SDS011;11853;48.080;11.960;2023-11-21T13:33:02;0.57;;;0.43;;
23362;SDS011;11853;48.080;11.960;2023-11-21T13:35:35;0.38;;;0.38;;
23362;SDS011;11853;48.080;11.960;2023-11-21T13:38:12;0.50;;;0.50;;
23362;SDS011;11853;48.080;11.960;2023-11-21T13:43:11;0.30;;;0.30;;
23362;SDS011;11853;48.080;11.960;2023-11-21T13:45:42;0.57;;;0.50;;
23362;SDS011;11853;48.080;11.960;2023-11-21T13:48:08;0.80;;;0.80;;
23362;SDS011;11853;48.080;11.960;2023-11-21T13:50:39;1.48;;;1.10;;
23362;SDS011;11853;48.080;11.960;2023-11-21T13:53:11;0.88;;;0.73;;
23362;SDS011;11853;48.080;11.960;2023-11-21T13:55:49;0.70;;;0.70;;
23362;SDS011;11853;48.080;11.960;2023-11-21T13:58:18;0.40;;;0.40;;
23362;SDS011;11853;48.080;11.960;2023-11-21T14:00:49;0.50;;;0.50;;
23362;SDS011;11853;48.080;11.960;2023-11-21T14:03:24;1.00;;;0.43;;
23362;SDS011;11853;48.080;11.960;2023-11-21T14:06:03;1.08;;;0.30;;
23362;SDS011;11853;48.080;11.960;2023-11-21T14:08:34;0.43;;;0.35;;
23362;SDS011;11853;48.080;11.960;2023-11-21T14:10:59;0.32;;;0.30;;
23362;SDS011;11853;48.080;11.960;2023-11-21T14:13:28;0.57;;;0.50;;
23362;SDS011;11853;48.080;11.960;2023-11-21T14:15:57;0.60;;;0.60;;
23362;SDS011;11853;48.080;11.960;2023-11-21T14:18:25;0.30;;;0.30;;
23362;SDS011;11853;48.080;11.960;2023-11-21T14:21:12;0.20;;;0.20;;
23362;SDS011;11853;48.080;11.960;2023-11-21T14:23:40;0.45;;;0.30;;
23362;SDS011;11853;48.080;11.960;2023-11-21T14:26:06;0.38;;;0.30;;
23362;SDS011;11853;48.080;11.960;2023-11-21T14:28:32;0.17;;;0.17;;
23362;SDS011;11853;48.080;11.960;2023-11-21T14:31:00;0.15;;;0.15;;
23362;SDS011;11853;48.080;11.960;2023-11-21T14:33:25;0.20;;;0.20;;
23362;SDS011;11853;48.080;11.960;2023-11-21T14:35:51;0.45;;;0.38;;
23362;SDS011;11853;48.080;11.960;2023-11-21T14:38:17;0.82;;;0.40;;
23362;SDS011;11853;48.080;11.960;2023-11-21T14:40:43;0.45;;;0.30;;
23362;SDS011;11853;48.080;11.960;2023-11-21T14:43:08;0.22;;;0.22;;
23362;SDS011;11853;48.080;11.960;2023-11-21T14:45:34;0.57;;;0.30;;
23362;SDS011;11853;48.080;11.960;2023-11-21T14:48:00;0.35;;;0.30;;
23362;SDS011;11853;48.080;11.960;2023-11-21T14:50:51;0.40;;;0.40;;
23362;SDS011;11853;48.080;11.960;2023-11-21T14:53:28;0.20;;;0.20;;
23362;SDS011;11853;48.080;11.960;2023-11-21T14:56:23;0.30;;;0.30;;